CPA757 EGKK-EBBR
Flight info
| Callsign | CPA757 |
|---|---|
| Flight time | 0h 38m |
| Altitude | 23000 |
| Route | DVR L18 VABIK Q70 KOK |
| Aircraft | A339/H-SADE1E2E3GHIJ3J5M1P2RWXY/LB2D1 |
Departure
| Time | 2026-05-06 17:26 |
|---|---|
| Airport | London Gatwick Airport (EGKK) |
Arrival
| Time | 2026-05-06 18:05 |
|---|---|
| Airport | Brussels Airport (EBBR) |
| Time | Latitude | Longitude | Altitude | Speed | Heading |
|---|---|---|---|---|---|
| 2026-05-06 16:58 | 51.15302 | -0.18002 | 201 ft | 0 kts | 348° |
| 2026-05-06 17:14 | 51.15300 | -0.18001 | 202 ft | 1 kts | 348° |
| 2026-05-06 17:15 | 51.15286 | -0.17996 | 202 ft | 2 kts | 348° |
| 2026-05-06 17:15 | 51.15271 | -0.17991 | 202 ft | 2 kts | 348° |
| 2026-05-06 17:15 | 51.15262 | -0.17988 | 202 ft | 2 kts | 345° |
| 2026-05-06 17:15 | 51.15248 | -0.17978 | 203 ft | 2 kts | 320° |
| 2026-05-06 17:16 | 51.15238 | -0.17961 | 203 ft | 2 kts | 301° |
| 2026-05-06 17:16 | 51.15232 | -0.17939 | 203 ft | 2 kts | 281° |
| 2026-05-06 17:16 | 51.15231 | -0.17915 | 203 ft | 1 kts | 261° |
| 2026-05-06 17:16 | 51.15232 | -0.17906 | 203 ft | 0 kts | 257° |
| 2026-05-06 17:17 | 51.15232 | -0.17905 | 203 ft | 0 kts | 257° |
| 2026-05-06 17:18 | 51.15232 | -0.17906 | 203 ft | 0 kts | 257° |
| 2026-05-06 17:19 | 51.15229 | -0.17931 | 203 ft | 4 kts | 257° |
| 2026-05-06 17:19 | 51.15219 | -0.18001 | 203 ft | 8 kts | 257° |
| 2026-05-06 17:19 | 51.15204 | -0.18113 | 202 ft | 12 kts | 259° |
| 2026-05-06 17:19 | 51.15184 | -0.18273 | 203 ft | 15 kts | 259° |
| 2026-05-06 17:20 | 51.15163 | -0.18443 | 204 ft | 16 kts | 259° |
| 2026-05-06 17:20 | 51.15140 | -0.18636 | 204 ft | 18 kts | 259° |
| 2026-05-06 17:20 | 51.15112 | -0.18850 | 204 ft | 20 kts | 258° |
| 2026-05-06 17:20 | 51.15079 | -0.19083 | 203 ft | 22 kts | 258° |
| 2026-05-06 17:21 | 51.15045 | -0.19337 | 201 ft | 24 kts | 258° |
| 2026-05-06 17:21 | 51.15008 | -0.19605 | 201 ft | 24 kts | 257° |
| 2026-05-06 17:21 | 51.14973 | -0.19859 | 204 ft | 22 kts | 258° |
| 2026-05-06 17:21 | 51.14941 | -0.20101 | 204 ft | 22 kts | 258° |
| 2026-05-06 17:22 | 51.14908 | -0.20336 | 206 ft | 21 kts | 258° |
| 2026-05-06 17:22 | 51.14877 | -0.20563 | 204 ft | 21 kts | 257° |
| 2026-05-06 17:22 | 51.14844 | -0.20796 | 204 ft | 21 kts | 258° |
| 2026-05-06 17:22 | 51.14813 | -0.21019 | 207 ft | 20 kts | 258° |
| 2026-05-06 17:23 | 51.14782 | -0.21192 | 207 ft | 15 kts | 253° |
| 2026-05-06 17:23 | 51.14758 | -0.21349 | 210 ft | 10 kts | 250° |
| 2026-05-06 17:23 | 51.14699 | -0.21386 | 211 ft | 10 kts | 159° |
| 2026-05-06 17:23 | 51.14628 | -0.21330 | 211 ft | 12 kts | 162° |
| 2026-05-06 17:24 | 51.14547 | -0.21270 | 209 ft | 13 kts | 136° |
| 2026-05-06 17:24 | 51.14522 | -0.21153 | 208 ft | 7 kts | 81° |
| 2026-05-06 17:24 | 51.14523 | -0.21142 | 207 ft | 0 kts | 79° |
| 2026-05-06 17:25 | 51.14541 | -0.21006 | 207 ft | 41 kts | 77° |
| 2026-05-06 17:25 | 51.14655 | -0.20189 | 204 ft | 107 kts | 78° |
| 2026-05-06 17:26 | 51.14855 | -0.18735 | 212 ft | 158 kts | 76° |
| 2026-05-06 17:26 | 51.15097 | -0.16940 | 670 ft | 168 kts | 77° |
| 2026-05-06 17:26 | 51.15330 | -0.15222 | 1454 ft | 157 kts | 76° |
| 2026-05-06 17:26 | 51.15559 | -0.13581 | 2094 ft | 154 kts | 76° |
| 2026-05-06 17:27 | 51.15806 | -0.11827 | 2438 ft | 169 kts | 76° |
| 2026-05-06 17:27 | 51.16073 | -0.09921 | 2772 ft | 186 kts | 76° |
| 2026-05-06 17:27 | 51.16363 | -0.07837 | 3109 ft | 202 kts | 76° |
| 2026-05-06 17:27 | 51.16672 | -0.05566 | 3444 ft | 221 kts | 78° |
| 2026-05-06 17:28 | 51.16862 | -0.03014 | 3832 ft | 240 kts | 86° |
| 2026-05-06 17:28 | 51.16862 | -0.00290 | 4258 ft | 258 kts | 90° |
| 2026-05-06 17:28 | 51.16806 | 0.02615 | 4923 ft | 267 kts | 90° |
| 2026-05-06 17:28 | 51.16739 | 0.05597 | 5625 ft | 271 kts | 90° |
| 2026-05-06 17:29 | 51.16682 | 0.08582 | 6378 ft | 274 kts | 90° |
| 2026-05-06 17:29 | 51.16628 | 0.11581 | 7117 ft | 276 kts | 91° |
| 2026-05-06 17:29 | 51.16569 | 0.14629 | 7809 ft | 280 kts | 91° |
| 2026-05-06 17:29 | 51.16532 | 0.17751 | 8564 ft | 283 kts | 89° |
| 2026-05-06 17:30 | 51.16546 | 0.20852 | 9312 ft | 286 kts | 88° |
| 2026-05-06 17:30 | 51.16562 | 0.24006 | 10034 ft | 290 kts | 89° |
| 2026-05-06 17:30 | 51.16567 | 0.27245 | 10753 ft | 294 kts | 89° |
| 2026-05-06 17:30 | 51.16569 | 0.30479 | 11462 ft | 298 kts | 89° |
| 2026-05-06 17:31 | 51.16573 | 0.33798 | 12163 ft | 302 kts | 89° |
| 2026-05-06 17:31 | 51.16575 | 0.37128 | 12844 ft | 306 kts | 89° |
| 2026-05-06 17:31 | 51.16577 | 0.40515 | 13521 ft | 311 kts | 89° |
| 2026-05-06 17:31 | 51.16577 | 0.43985 | 14208 ft | 315 kts | 89° |
| 2026-05-06 17:32 | 51.16578 | 0.47456 | 14890 ft | 319 kts | 89° |
| 2026-05-06 17:32 | 51.16577 | 0.50991 | 15497 ft | 326 kts | 89° |
| 2026-05-06 17:32 | 51.16574 | 0.54671 | 15847 ft | 343 kts | 89° |
| 2026-05-06 17:32 | 51.16569 | 0.58578 | 16165 ft | 360 kts | 90° |
| 2026-05-06 17:33 | 51.16564 | 0.62612 | 16469 ft | 376 kts | 90° |
| 2026-05-06 17:33 | 51.16557 | 0.66876 | 16926 ft | 387 kts | 90° |
| 2026-05-06 17:33 | 51.16548 | 0.71143 | 17578 ft | 390 kts | 90° |
| 2026-05-06 17:33 | 51.16539 | 0.75448 | 18248 ft | 394 kts | 91° |
| 2026-05-06 17:34 | 51.16527 | 0.79835 | 18888 ft | 397 kts | 91° |
| 2026-05-06 17:34 | 51.16515 | 0.84215 | 19497 ft | 401 kts | 91° |
| 2026-05-06 17:34 | 51.16500 | 0.88653 | 20089 ft | 405 kts | 91° |
| 2026-05-06 17:34 | 51.16484 | 0.93132 | 20674 ft | 409 kts | 91° |
| 2026-05-06 17:35 | 51.16466 | 0.97659 | 21254 ft | 413 kts | 91° |
| 2026-05-06 17:35 | 51.16446 | 1.02269 | 21827 ft | 417 kts | 91° |
| 2026-05-06 17:35 | 51.16426 | 1.06880 | 22383 ft | 420 kts | 91° |
| 2026-05-06 17:36 | 51.16380 | 1.16179 | 23001 ft | 424 kts | 91° |
| 2026-05-06 17:36 | 51.16352 | 1.20880 | 23051 ft | 423 kts | 91° |
| 2026-05-06 17:36 | 51.16321 | 1.25577 | 23093 ft | 422 kts | 91° |
| 2026-05-06 17:36 | 51.16304 | 1.30194 | 23054 ft | 421 kts | 90° |
| 2026-05-06 17:37 | 51.16439 | 1.34832 | 23017 ft | 421 kts | 86° |
| 2026-05-06 17:37 | 51.16771 | 1.39455 | 23000 ft | 421 kts | 82° |
| 2026-05-06 17:37 | 51.17300 | 1.44043 | 22993 ft | 421 kts | 78° |
| 2026-05-06 17:37 | 51.17898 | 1.48551 | 22977 ft | 421 kts | 78° |
| 2026-05-06 17:38 | 51.18515 | 1.53130 | 22964 ft | 421 kts | 78° |
| 2026-05-06 17:38 | 51.19122 | 1.57648 | 22957 ft | 421 kts | 78° |
| 2026-05-06 17:38 | 51.19733 | 1.62242 | 22953 ft | 421 kts | 78° |
| 2026-05-06 17:38 | 51.20333 | 1.66782 | 22955 ft | 421 kts | 79° |
| 2026-05-06 17:39 | 51.20927 | 1.71304 | 22957 ft | 421 kts | 79° |
| 2026-05-06 17:39 | 51.21537 | 1.75982 | 22962 ft | 437 kts | 79° |
| 2026-05-06 17:39 | 51.22159 | 1.80763 | 22957 ft | 448 kts | 79° |
| 2026-05-06 17:39 | 51.22793 | 1.85662 | 22956 ft | 451 kts | 79° |
| 2026-05-06 17:40 | 51.23422 | 1.90539 | 22957 ft | 452 kts | 79° |
| 2026-05-06 17:40 | 51.24021 | 1.95426 | 22958 ft | 452 kts | 82° |
| 2026-05-06 17:40 | 51.24356 | 2.00364 | 22958 ft | 452 kts | 87° |
| 2026-05-06 17:40 | 51.24383 | 2.05398 | 22957 ft | 451 kts | 93° |
| 2026-05-06 17:41 | 51.24188 | 2.10301 | 22951 ft | 441 kts | 95° |
| 2026-05-06 17:41 | 51.23947 | 2.15114 | 22951 ft | 425 kts | 96° |
| 2026-05-06 17:41 | 51.23709 | 2.19722 | 22955 ft | 420 kts | 96° |
| 2026-05-06 17:41 | 51.23470 | 2.24398 | 22954 ft | 420 kts | 95° |
| 2026-05-06 17:42 | 51.23239 | 2.28999 | 22762 ft | 420 kts | 95° |
| 2026-05-06 17:42 | 51.23009 | 2.33623 | 22120 ft | 426 kts | 95° |
| 2026-05-06 17:42 | 51.22587 | 2.38326 | 21476 ft | 428 kts | 107° |
| 2026-05-06 17:42 | 51.21454 | 2.42632 | 20915 ft | 424 kts | 121° |
| 2026-05-06 17:43 | 51.19725 | 2.46357 | 20425 ft | 418 kts | 132° |
| 2026-05-06 17:43 | 51.17833 | 2.49815 | 19971 ft | 414 kts | 133° |
| 2026-05-06 17:43 | 51.15946 | 2.53234 | 19534 ft | 410 kts | 132° |
| 2026-05-06 17:43 | 51.14090 | 2.56622 | 19108 ft | 405 kts | 132° |
| 2026-05-06 17:44 | 51.12241 | 2.60021 | 18685 ft | 401 kts | 131° |
| 2026-05-06 17:44 | 51.10528 | 2.63461 | 18261 ft | 398 kts | 123° |
| 2026-05-06 17:44 | 51.09306 | 2.67366 | 17860 ft | 395 kts | 111° |
| 2026-05-06 17:44 | 51.08619 | 2.71528 | 17522 ft | 389 kts | 102° |
| 2026-05-06 17:45 | 51.08121 | 2.75705 | 17122 ft | 386 kts | 101° |
| 2026-05-06 17:45 | 51.07640 | 2.79910 | 16717 ft | 383 kts | 101° |
| 2026-05-06 17:45 | 51.07164 | 2.84025 | 16329 ft | 380 kts | 101° |
| 2026-05-06 17:45 | 51.06683 | 2.88127 | 15947 ft | 377 kts | 101° |
| 2026-05-06 17:46 | 51.06200 | 2.92176 | 15572 ft | 374 kts | 101° |
| 2026-05-06 17:46 | 51.05716 | 2.96197 | 15203 ft | 371 kts | 101° |
| 2026-05-06 17:46 | 51.05232 | 3.00188 | 14836 ft | 368 kts | 101° |
| 2026-05-06 17:46 | 51.04743 | 3.04193 | 14467 ft | 365 kts | 101° |
| 2026-05-06 17:47 | 51.04261 | 3.08125 | 14101 ft | 362 kts | 101° |
| 2026-05-06 17:47 | 51.03782 | 3.12020 | 13735 ft | 360 kts | 101° |
| 2026-05-06 17:47 | 51.03306 | 3.15885 | 13370 ft | 357 kts | 101° |
| 2026-05-06 17:47 | 51.02832 | 3.19711 | 13008 ft | 355 kts | 101° |
| 2026-05-06 17:48 | 51.02360 | 3.23520 | 12646 ft | 353 kts | 101° |
| 2026-05-06 17:48 | 51.01884 | 3.27348 | 12282 ft | 350 kts | 101° |
| 2026-05-06 17:48 | 51.01414 | 3.31114 | 11922 ft | 348 kts | 100° |
| 2026-05-06 17:48 | 51.00946 | 3.34851 | 11563 ft | 346 kts | 100° |
| 2026-05-06 17:49 | 51.00480 | 3.38559 | 11207 ft | 344 kts | 100° |
| 2026-05-06 17:49 | 51.00016 | 3.42252 | 10851 ft | 342 kts | 100° |
| 2026-05-06 17:49 | 50.99551 | 3.45934 | 10495 ft | 340 kts | 100° |
| 2026-05-06 17:49 | 50.99088 | 3.49590 | 10144 ft | 338 kts | 100° |
| 2026-05-06 17:50 | 50.98628 | 3.53220 | 10042 ft | 327 kts | 100° |
| 2026-05-06 17:50 | 50.98186 | 3.56684 | 10005 ft | 315 kts | 100° |
| 2026-05-06 17:50 | 50.97762 | 3.60017 | 9963 ft | 303 kts | 99° |
| 2026-05-06 17:50 | 50.97350 | 3.63236 | 9861 ft | 295 kts | 99° |
| 2026-05-06 17:51 | 50.96949 | 3.66372 | 9686 ft | 290 kts | 100° |
| 2026-05-06 17:51 | 50.96550 | 3.69491 | 9425 ft | 288 kts | 100° |
| 2026-05-06 17:51 | 50.96153 | 3.72587 | 9155 ft | 287 kts | 100° |
| 2026-05-06 17:51 | 50.95755 | 3.75678 | 8891 ft | 285 kts | 100° |
| 2026-05-06 17:52 | 50.95362 | 3.78718 | 8633 ft | 284 kts | 100° |
| 2026-05-06 17:52 | 50.94966 | 3.81776 | 8374 ft | 282 kts | 100° |
| 2026-05-06 17:52 | 50.94572 | 3.84818 | 8116 ft | 281 kts | 100° |
| 2026-05-06 17:52 | 50.94178 | 3.87839 | 7860 ft | 280 kts | 100° |
| 2026-05-06 17:53 | 50.93787 | 3.90838 | 7603 ft | 278 kts | 100° |
| 2026-05-06 17:53 | 50.93394 | 3.93833 | 7342 ft | 276 kts | 99° |
| 2026-05-06 17:53 | 50.93005 | 3.96807 | 7067 ft | 275 kts | 99° |
| 2026-05-06 17:53 | 50.92623 | 3.99726 | 6789 ft | 274 kts | 99° |
| 2026-05-06 17:54 | 50.92238 | 4.02667 | 6526 ft | 273 kts | 99° |
| 2026-05-06 17:54 | 50.91855 | 4.05594 | 6254 ft | 271 kts | 99° |
| 2026-05-06 17:54 | 50.91470 | 4.08506 | 5988 ft | 270 kts | 99° |
| 2026-05-06 17:54 | 50.91047 | 4.11386 | 5716 ft | 270 kts | 107° |
| 2026-05-06 17:55 | 50.89967 | 4.13809 | 5401 ft | 276 kts | 141° |
| 2026-05-06 17:55 | 50.88213 | 4.15055 | 5137 ft | 277 kts | 165° |
| 2026-05-06 17:55 | 50.86348 | 4.15733 | 4871 ft | 276 kts | 166° |
| 2026-05-06 17:55 | 50.84489 | 4.16413 | 4605 ft | 275 kts | 166° |
| 2026-05-06 17:56 | 50.82635 | 4.17111 | 4348 ft | 275 kts | 165° |
| 2026-05-06 17:56 | 50.80786 | 4.17821 | 4104 ft | 273 kts | 165° |
| 2026-05-06 17:56 | 50.78945 | 4.18536 | 3883 ft | 270 kts | 165° |
| 2026-05-06 17:56 | 50.77144 | 4.19244 | 3763 ft | 264 kts | 165° |
| 2026-05-06 17:57 | 50.75397 | 4.19927 | 3550 ft | 255 kts | 165° |
| 2026-05-06 17:57 | 50.73720 | 4.20584 | 3350 ft | 244 kts | 165° |
| 2026-05-06 17:57 | 50.72111 | 4.21211 | 3150 ft | 233 kts | 164° |
| 2026-05-06 17:57 | 50.70577 | 4.21840 | 2965 ft | 223 kts | 158° |
| 2026-05-06 17:58 | 50.69368 | 4.23177 | 2805 ft | 209 kts | 121° |
| 2026-05-06 17:58 | 50.68863 | 4.25219 | 2698 ft | 198 kts | 90° |
| 2026-05-06 17:58 | 50.69030 | 4.27321 | 2591 ft | 189 kts | 73° |
| 2026-05-06 17:58 | 50.69357 | 4.29265 | 2478 ft | 183 kts | 72° |
| 2026-05-06 17:59 | 50.69684 | 4.31185 | 2334 ft | 180 kts | 72° |
| 2026-05-06 17:59 | 50.69999 | 4.33088 | 2146 ft | 179 kts | 72° |
| 2026-05-06 17:59 | 50.70306 | 4.34985 | 2015 ft | 176 kts | 72° |
| 2026-05-06 17:59 | 50.70608 | 4.36870 | 2017 ft | 179 kts | 73° |
| 2026-05-06 18:00 | 50.70910 | 4.38769 | 2009 ft | 179 kts | 73° |
| 2026-05-06 18:00 | 50.71216 | 4.40669 | 2002 ft | 178 kts | 67° |
| 2026-05-06 18:00 | 50.71951 | 4.42159 | 1991 ft | 174 kts | 27° |
| 2026-05-06 18:00 | 50.73072 | 4.42881 | 2009 ft | 174 kts | 15° |
| 2026-05-06 18:01 | 50.74239 | 4.43328 | 2005 ft | 174 kts | 12° |
| 2026-05-06 18:01 | 50.75423 | 4.43744 | 2002 ft | 174 kts | 13° |
| 2026-05-06 18:01 | 50.76601 | 4.44185 | 2000 ft | 174 kts | 14° |
| 2026-05-06 18:01 | 50.77779 | 4.44658 | 2000 ft | 174 kts | 14° |
| 2026-05-06 18:02 | 50.78953 | 4.45142 | 2001 ft | 173 kts | 14° |
| 2026-05-06 18:02 | 50.80082 | 4.45610 | 1941 ft | 162 kts | 14° |
| 2026-05-06 18:02 | 50.81131 | 4.46042 | 1742 ft | 154 kts | 14° |
| 2026-05-06 18:02 | 50.82158 | 4.46466 | 1529 ft | 147 kts | 14° |
| 2026-05-06 18:03 | 50.83119 | 4.46860 | 1336 ft | 140 kts | 14° |
| 2026-05-06 18:03 | 50.84034 | 4.47234 | 1152 ft | 133 kts | 14° |
| 2026-05-06 18:03 | 50.84936 | 4.47604 | 990 ft | 135 kts | 14° |
| 2026-05-06 18:03 | 50.85848 | 4.47977 | 813 ft | 137 kts | 14° |
| 2026-05-06 18:04 | 50.86772 | 4.48352 | 595 ft | 136 kts | 14° |
| 2026-05-06 18:04 | 50.87693 | 4.48733 | 415 ft | 136 kts | 15° |
| 2026-05-06 18:04 | 50.88605 | 4.49106 | 232 ft | 135 kts | 14° |
| 2026-05-06 18:04 | 50.89473 | 4.49462 | 160 ft | 112 kts | 14° |
| 2026-05-06 18:05 | 50.90037 | 4.49688 | 148 ft | 47 kts | 12° |
| 2026-05-06 18:05 | 50.90266 | 4.49689 | 143 ft | 27 kts | 344° |
| 2026-05-06 18:05 | 50.90365 | 4.49642 | 141 ft | 6 kts | 343° |
| 2026-05-06 18:05 | 50.90416 | 4.49602 | 140 ft | 9 kts | 324° |
| 2026-05-06 18:06 | 50.90452 | 4.49512 | 141 ft | 9 kts | 265° |
| 2026-05-06 18:06 | 50.90419 | 4.49440 | 143 ft | 7 kts | 196° |
| 2026-05-06 18:06 | 50.90371 | 4.49417 | 146 ft | 6 kts | 209° |
| 2026-05-06 18:06 | 50.90340 | 4.49357 | 148 ft | 7 kts | 240° |
| 2026-05-06 18:07 | 50.90316 | 4.49280 | 149 ft | 6 kts | 240° |
| 2026-05-06 18:07 | 50.90279 | 4.49240 | 151 ft | 6 kts | 198° |
| 2026-05-06 18:07 | 50.90238 | 4.49221 | 153 ft | 5 kts | 194° |
| 2026-05-06 18:07 | 50.90220 | 4.49213 | 153 ft | 0 kts | 194° |
| 2026-05-06 18:08 | 50.90218 | 4.49212 | 153 ft | 0 kts | 194° |